Time;durP1;ratioP1;P1;durP2;ratioP2;P2;SDS_P1;SDS_P2;PMS_P1;PMS_P2;Temp;Humidity;BMP_temperature;BMP_pressure;BME280_temperature;BME280_humidity;BME280_pressure;Samples;Min_cycle;Max_cycle;Signal;HPM_P1;HPM_P2
2023/09/16 00:01:29;;;;;;;5.35;3.75;;;;;;;9.11;100.00;100645.22;5181647;27;20046;-63
2023/09/16 00:03:56;;;;;;;4.57;3.35;;;;;;;9.13;100.00;100646.53;5181330;27;20058;-64
2023/09/16 00:06:22;;;;;;;5.55;3.72;;;;;;;9.12;100.00;100647.63;5181395;27;20050;-64
2023/09/16 00:08:48;;;;;;;5.30;3.63;;;;;;;8.96;100.00;100646.47;5181154;27;20065;-64
2023/09/16 00:11:13;;;;;;;4.13;3.67;;;;;;;8.96;100.00;100643.72;5181568;27;20092;-65
2023/09/16 00:13:41;;;;;;;5.85;3.38;;;;;;;9.01;100.00;100645.53;5181305;27;20078;-65
2023/09/16 00:16:08;;;;;;;5.63;3.42;;;;;;;8.95;100.00;100645.66;5181414;27;20050;-64
2023/09/16 00:18:34;;;;;;;4.47;3.63;;;;;;;9.09;100.00;100650.19;5181133;27;20064;-65
2023/09/16 00:21:01;;;;;;;7.63;3.33;;;;;;;9.11;100.00;100653.44;5180659;27;20434;-62
2023/09/16 00:23:27;;;;;;;8.48;3.40;;;;;;;9.15;100.00;100654.41;5181093;27;20061;-63
2023/09/16 00:25:53;;;;;;;18.63;5.30;;;;;;;9.17;100.00;100661.19;5181463;27;20106;-62
2023/09/16 00:28:19;;;;;;;9.35;3.65;;;;;;;9.18;100.00;100664.72;5180946;27;20096;-63
2023/09/16 00:30:45;;;;;;;7.00;3.38;;;;;;;9.12;100.00;100669.53;5180855;27;20050;-65
2023/09/16 00:33:11;;;;;;;6.50;3.58;;;;;;;8.96;100.00;100662.88;5181220;27;20085;-65
2023/09/16 00:35:37;;;;;;;7.20;3.97;;;;;;;9.00;100.00;100663.88;5180762;27;20050;-63
2023/09/16 00:38:04;;;;;;;6.07;3.78;;;;;;;8.94;100.00;100660.47;5181053;27;20046;-65
2023/09/16 00:40:31;;;;;;;4.88;3.58;;;;;;;8.95;100.00;100667.53;5181034;27;20046;-64
2023/09/16 00:42:57;;;;;;;4.90;3.47;;;;;;;8.91;100.00;100671.25;5181101;27;20106;-62
2023/09/16 00:45:23;;;;;;;6.20;3.67;;;;;;;8.73;100.00;100664.91;5180814;27;20487;-62
2023/09/16 00:47:49;;;;;;;7.78;3.90;;;;;;;8.85;100.00;100659.63;5181097;27;20133;-63
2023/09/16 00:50:17;;;;;;;5.07;3.80;;;;;;;8.90;100.00;100669.63;5180725;27;20415;-64
2023/09/16 00:52:45;;;;;;;5.22;3.60;;;;;;;8.81;100.00;100669.59;5180500;27;20077;-61
2023/09/16 00:55:12;;;;;;;5.95;3.70;;;;;;;8.70;100.00;100669.06;5180532;27;20137;-65
2023/09/16 00:57:42;;;;;;;5.28;3.30;;;;;;;8.82;100.00;100660.25;5180922;27;20106;-64
2023/09/16 01:00:10;;;;;;;5.38;3.70;;;;;;;8.86;100.00;100661.25;5180739;27;20133;-61
2023/09/16 01:02:37;;;;;;;6.70;3.80;;;;;;;8.79;100.00;100665.56;5180635;27;20050;-64
2023/09/16 01:05:05;;;;;;;7.35;3.20;;;;;;;8.72;100.00;100658.63;5180470;27;20050;-64
2023/09/16 01:07:31;;;;;;;6.38;3.38;;;;;;;8.71;100.00;100658.94;5180517;27;20142;-65
2023/09/16 01:09:57;;;;;;;6.38;3.38;;;;;;;8.74;100.00;100662.97;5180621;27;20178;-65
2023/09/16 01:12:24;;;;;;;5.20;3.75;;;;;;;8.69;100.00;100659.25;5180403;27;20074;-62
2023/09/16 01:14:50;;;;;;;4.82;3.05;;;;;;;8.69;100.00;100664.72;5180624;27;20050;-64
2023/09/16 01:17:24;;;;;;;5.15;3.75;;;;;;;8.75;100.00;100662.66;5180180;27;20147;-64
2023/09/16 01:19:59;;;;;;;4.82;3.92;;;;;;;8.74;100.00;100671.19;5180542;27;20352;-64
2023/09/16 01:22:26;;;;;;;10.63;3.83;;;;;;;8.76;100.00;100671.66;5180080;27;20057;-64
2023/09/16 01:24:52;;;;;;;7.80;3.78;;;;;;;8.71;100.00;100681.63;5180254;27;20050;-64
2023/09/16 01:27:19;;;;;;;6.13;3.63;;;;;;;8.66;100.00;100680.94;5180370;27;20046;-61
2023/09/16 01:29:45;;;;;;;6.53;4.15;;;;;;;8.64;100.00;100680.47;5180108;27;20054;-63
2023/09/16 01:32:15;;;;;;;5.35;3.60;;;;;;;8.57;100.00;100677.38;5179614;27;20046;-65
2023/09/16 01:34:44;;;;;;;5.35;3.53;;;;;;;8.47;100.00;100687.47;5179543;27;20046;-62
2023/09/16 01:37:13;;;;;;;6.28;3.90;;;;;;;8.54;100.00;100680.75;5180240;27;20327;-62
2023/09/16 01:39:40;;;;;;;5.95;3.70;;;;;;;8.44;100.00;100690.00;5179799;27;20054;-64
2023/09/16 01:42:08;;;;;;;5.30;3.70;;;;;;;8.40;100.00;100676.16;5180183;27;20300;-64
2023/09/16 01:44:35;;;;;;;7.28;3.67;;;;;;;8.46;100.00;100672.19;5179883;27;20050;-62
2023/09/16 01:47:01;;;;;;;7.22;3.88;;;;;;;8.47;100.00;100660.13;5180170;27;20364;-63
2023/09/16 01:49:27;;;;;;;5.32;4.00;;;;;;;8.47;100.00;100657.41;5179596;27;20149;-64
2023/09/16 01:51:52;;;;;;;6.47;3.42;;;;;;;8.35;100.00;100653.59;5179617;27;20046;-63
2023/09/16 01:54:18;;;;;;;5.75;4.03;;;;;;;8.45;100.00;100650.63;5179824;27;20085;-64
2023/09/16 01:56:45;;;;;;;6.40;3.97;;;;;;;8.39;100.00;100649.94;5179778;27;20319;-64
2023/09/16 01:59:11;;;;;;;5.88;3.38;;;;;;;8.41;100.00;100655.91;5179767;27;20046;-64
2023/09/16 02:01:38;;;;;;;5.25;3.65;;;;;;;8.33;100.00;100645.72;5179625;27;20459;-63
2023/09/16 02:04:04;;;;;;;6.32;4.20;;;;;;;8.39;100.00;100649.94;5179851;27;20145;-65
2023/09/16 02:06:29;;;;;;;5.22;4.07;;;;;;;8.16;100.00;100660.09;5179355;27;20142;-63
2023/09/16 02:08:55;;;;;;;5.22;3.90;;;;;;;8.19;100.00;100653.19;5179371;27;20050;-61
2023/09/16 02:11:21;;;;;;;5.25;3.80;;;;;;;8.22;100.00;100652.56;5179400;27;20102;-62
2023/09/16 02:13:47;;;;;;;4.50;3.72;;;;;;;8.25;100.00;100644.53;5179707;27;20050;-64
2023/09/16 02:16:13;;;;;;;5.30;4.05;;;;;;;8.20;100.00;100632.97;5179307;27;20050;-63
2023/09/16 02:18:40;;;;;;;4.95;4.00;;;;;;;8.15;100.00;100638.53;5179549;27;20046;-65
2023/09/16 02:21:07;;;;;;;4.78;3.85;;;;;;;8.11;100.00;100635.63;5179422;27;20086;-61
2023/09/16 02:23:33;;;;;;;4.13;3.20;;;;;;;8.17;100.00;100617.19;5179381;27;20061;-65
2023/09/16 02:26:00;;;;;;;4.95;3.83;;;;;;;8.17;100.00;100628.13;5179412;27;20046;-63
2023/09/16 02:28:26;;;;;;;4.85;3.25;;;;;;;8.17;100.00;100630.84;5179290;27;20062;-63
2023/09/16 02:30:52;;;;;;;5.05;3.35;;;;;;;8.06;100.00;100635.75;5179141;27;20050;-65
2023/09/16 02:33:18;;;;;;;5.70;3.75;;;;;;;8.20;100.00;100624.75;5179134;27;20138;-65
2023/09/16 02:35:45;;;;;;;8.05;3.88;;;;;;;8.15;100.00;100622.94;5179339;27;20096;-64
2023/09/16 02:38:11;;;;;;;7.10;3.28;;;;;;;8.02;100.00;100629.28;5178866;27;20129;-64
2023/09/16 02:40:39;;;;;;;6.82;3.97;;;;;;;8.19;100.00;100623.13;5179307;27;20110;-62
2023/09/16 02:43:05;;;;;;;7.65;4.22;;;;;;;8.08;100.00;100630.78;5178935;27;20042;-62
2023/09/16 02:45:31;;;;;;;4.50;3.40;;;;;;;8.22;100.00;100622.50;5178876;27;20426;-63
2023/09/16 02:47:57;;;;;;;5.43;3.75;;;;;;;8.27;100.00;100636.03;5178728;27;20053;-61
2023/09/16 02:50:23;;;;;;;4.00;3.20;;;;;;;8.27;100.00;100643.44;5179265;27;20046;-61
2023/09/16 02:52:49;;;;;;;7.07;3.38;;;;;;;8.26;100.00;100642.59;5178730;27;20046;-63
2023/09/16 02:55:16;;;;;;;4.05;3.35;;;;;;;8.07;100.00;100659.22;5179008;27;20359;-62
2023/09/16 02:57:44;;;;;;;4.43;3.53;;;;;;;8.17;100.00;100648.03;5178760;27;20404;-61
2023/09/16 03:00:14;;;;;;;3.58;3.20;;;;;;;8.14;100.00;100642.41;5178700;27;20122;-63
2023/09/16 03:02:46;;;;;;;6.32;3.30;;;;;;;8.07;100.00;100634.66;5178980;27;20126;-62
2023/09/16 03:05:12;;;;;;;7.45;4.13;;;;;;;7.97;100.00;100640.38;5178530;27;20437;-65
2023/09/16 03:07:38;;;;;;;4.78;3.08;;;;;;;8.08;100.00;100608.94;5179128;27;20137;-65
2023/09/16 03:10:05;;;;;;;3.70;3.15;;;;;;;8.09;100.00;100607.00;5178476;27;20149;-65
2023/09/16 03:12:31;;;;;;;3.45;3.03;;;;;;;8.21;100.00;100616.25;5179012;27;20181;-66
2023/09/16 03:14:57;;;;;;;8.38;3.60;;;;;;;8.22;100.00;100612.38;5178389;27;20050;-64
2023/09/16 03:17:22;;;;;;;3.47;3.17;;;;;;;8.22;100.00;100620.56;5178675;27;20201;-65
2023/09/16 03:19:48;;;;;;;4.15;2.95;;;;;;;8.25;100.00;100627.34;5178331;27;20122;-64
2023/09/16 03:22:14;;;;;;;6.50;3.40;;;;;;;8.19;100.00;100625.84;5178529;27;20046;-64
2023/09/16 03:24:42;;;;;;;5.20;3.53;;;;;;;8.20;100.00;100644.69;5178635;27;20074;-62
2023/09/16 03:27:08;;;;;;;5.55;4.10;;;;;;;8.20;100.00;100650.16;5178483;27;20084;-62
2023/09/16 03:29:35;;;;;;;5.18;3.40;;;;;;;8.14;100.00;100656.84;5178665;27;20054;-62
2023/09/16 03:32:01;;;;;;;5.05;3.53;;;;;;;8.07;100.00;100655.69;5178544;27;20137;-65
2023/09/16 03:34:27;;;;;;;4.32;3.65;;;;;;;8.19;100.00;100664.09;5178623;27;20060;-65
2023/09/16 03:36:53;;;;;;;9.00;3.58;;;;;;;8.18;100.00;100657.03;5178179;27;20053;-63
2023/09/16 03:39:19;;;;;;;4.90;3.15;;;;;;;8.10;100.00;100657.81;5178512;27;20045;-64
2023/09/16 03:41:45;;;;;;;8.68;3.60;;;;;;;8.04;100.00;100653.59;5178105;27;20056;-62
2023/09/16 03:44:12;;;;;;;4.57;3.05;;;;;;;8.10;100.00;100657.81;5178524;27;20042;-61
2023/09/16 03:46:39;;;;;;;5.78;3.25;;;;;;;8.13;100.00;100662.63;5177965;27;20050;-63
2023/09/16 03:49:05;;;;;;;9.55;3.95;;;;;;;8.11;100.00;100656.69;5178009;27;20404;-64
2023/09/16 03:51:31;;;;;;;6.18;3.38;;;;;;;8.17;100.00;100667.16;5177999;27;20043;-63
2023/09/16 03:53:57;;;;;;;4.75;3.50;;;;;;;8.11;100.00;100671.13;5178169;27;20141;-64
2023/09/16 03:56:23;;;;;;;5.05;3.20;;;;;;;8.10;100.00;100676.91;5179449;27;20057;-62
2023/09/16 03:58:49;;;;;;;4.00;3.40;;;;;;;8.13;100.00;100679.00;5181479;27;20046;-62
2023/09/16 04:01:16;;;;;;;4.25;3.42;;;;;;;8.06;100.00;100676.72;5181868;27;20042;-63
2023/09/16 04:03:42;;;;;;;8.52;3.08;;;;;;;8.17;100.00;100675.34;5181352;27;20133;-63
2023/09/16 04:06:08;;;;;;;5.00;3.63;;;;;;;8.24;100.00;100689.38;5181422;27;20118;-63
2023/09/16 04:08:34;;;;;;;4.97;3.67;;;;;;;8.17;100.00;100689.03;5181314;27;20149;-62
2023/09/16 04:11:00;;;;;;;6.90;3.35;;;;;;;8.20;100.00;100696.59;5181795;27;20137;-62
2023/09/16 04:13:26;;;;;;;4.47;3.40;;;;;;;8.19;100.00;100702.34;5181161;27;20061;-63
2023/09/16 04:15:52;;;;;;;5.55;4.05;;;;;;;8.19;100.00;100702.34;5181472;27;20121;-64
2023/09/16 04:18:18;;;;;;;6.93;3.80;;;;;;;8.21;100.00;100700.13;5181357;27;20426;-65
2023/09/16 04:20:45;;;;;;;5.80;3.75;;;;;;;8.18;100.00;100704.28;5181342;27;20326;-65
2023/09/16 04:23:11;;;;;;;4.45;3.80;;;;;;;8.39;100.00;100701.88;5181383;27;20102;-64
2023/09/16 04:25:37;;;;;;;5.78;3.70;;;;;;;8.92;100.00;100695.53;5181008;27;20423;-65
2023/09/16 04:28:03;;;;;;;3.45;2.63;;;;;;;9.79;100.00;100731.28;5181427;27;20050;-64
2023/09/16 04:30:30;;;;;;;3.25;2.85;;;;;;;10.36;100.00;100785.16;5181097;27;20050;-65
2023/09/16 04:32:55;;;;;;;3.67;2.60;;;;;;;10.94;100.00;100802.97;5181292;27;20133;-61
2023/09/16 04:35:22;;;;;;;6.63;3.03;;;;;;;11.49;100.00;100727.94;5180863;27;20446;-63
2023/09/16 04:37:48;;;;;;;3.63;2.60;;;;;;;12.01;100.00;100501.44;5181217;27;20136;-62
2023/09/16 04:40:14;;;;;;;3.08;2.22;;;;;;;12.58;100.00;100178.66;5180569;27;20093;-63
2023/09/16 04:42:40;;;;;;;5.22;2.67;;;;;;;12.82;100.00;99832.94;5180987;27;20396;-64
2023/09/16 04:45:07;;;;;;;3.20;2.17;;;;;;;13.01;100.00;99585.22;5180849;27;20061;-65
2023/09/16 04:47:33;;;;;;;2.83;2.28;;;;;;;13.32;100.00;99481.41;5181111;27;20061;-66
2023/09/16 04:49:59;;;;;;;3.15;2.28;;;;;;;13.89;100.00;99418.63;5180671;27;20049;-64
2023/09/16 04:52:27;;;;;;;4.70;2.55;;;;;;;14.27;100.00;99422.88;5180404;27;20106;-64
2023/09/16 04:54:53;;;;;;;2.53;2.28;;;;;;;14.41;100.00;99469.06;5180648;27;20043;-64
2023/09/16 04:57:20;;;;;;;5.47;3.60;;;;;;;15.00;100.00;99486.44;5180613;27;20105;-63
2023/09/16 04:59:46;;;;;;;3.97;3.35;;;;;;;15.18;100.00;99565.81;5180824;27;20101;-66
2023/09/16 05:02:12;;;;;;;4.07;3.00;;;;;;;15.63;100.00;99625.25;5180432;27;20424;-65
2023/09/16 05:04:38;;;;;;;4.97;3.45;;;;;;;15.57;100.00;99684.03;5180762;27;20042;-63
2023/09/16 05:07:04;;;;;;;4.57;3.47;;;;;;;15.64;100.00;99704.22;5180165;27;20335;-63
2023/09/16 05:09:31;;;;;;;3.33;2.65;;;;;;;15.76;100.00;99745.38;5180663;27;20054;-63
2023/09/16 05:11:57;;;;;;;2.30;2.10;;;;;;;16.45;100.00;99801.84;5180081;27;20102;-63
2023/09/16 05:14:24;;;;;;;5.20;3.10;;;;;;;16.38;100.00;99816.44;5180302;27;20050;-65
2023/09/16 05:16:50;;;;;;;4.15;2.20;;;;;;;16.17;100.00;99861.38;5180387;27;20281;-65
2023/09/16 05:19:16;;;;;;;6.97;3.60;;;;;;;16.50;100.00;99831.13;5180198;27;20141;-64
2023/09/16 05:21:42;;;;;;;3.05;2.63;;;;;;;16.39;100.00;99867.84;5180468;27;20528;-63
2023/09/16 05:24:08;;;;;;;2.67;2.30;;;;;;;16.79;100.00;99902.06;5180041;27;20300;-62
2023/09/16 05:26:34;;;;;;;4.03;3.25;;;;;;;16.80;100.00;99909.19;5180351;27;20085;-66
2023/09/16 05:29:00;;;;;;;4.18;2.25;;;;;;;17.04;100.00;99913.25;5180166;27;20167;-66
2023/09/16 05:31:27;;;;;;;2.65;2.17;;;;;;;17.47;100.00;99954.16;5179887;27;20375;-65
2023/09/16 05:33:53;;;;;;;3.35;2.08;;;;;;;18.13;100.00;99990.72;5180059;27;20050;-63
2023/09/16 05:36:20;;;;;;;6.10;2.50;;;;;;;18.37;100.00;99985.56;5180330;27;20074;-64
2023/09/16 05:38:46;;;;;;;2.78;2.30;;;;;;;18.25;100.00;99984.78;5179735;27;20056;-64
2023/09/16 05:41:12;;;;;;;4.15;2.30;;;;;;;17.81;100.00;99999.81;5180315;27;20077;-63
2023/09/16 05:43:38;;;;;;;2.40;2.17;;;;;;;18.24;100.00;99999.06;5179692;27;20057;-65
2023/09/16 05:46:06;;;;;;;3.38;2.80;;;;;;;18.19;100.00;100016.09;5180040;27;20050;-63
2023/09/16 05:48:32;;;;;;;2.22;2.03;;;;;;;18.39;100.00;100028.38;5179735;27;20050;-63
2023/09/16 05:50:59;;;;;;;4.53;2.55;;;;;;;18.94;100.00;100041.06;5179856;27;20061;-64
2023/09/16 05:53:25;;;;;;;5.28;2.15;;;;;;;18.47;100.00;100016.09;5180056;27;20415;-65
2023/09/16 05:55:53;;;;;;;3.67;2.15;;;;;;;19.34;100.00;100058.41;5179733;27;20057;-65
2023/09/16 05:58:19;;;;;;;2.53;2.25;;;;;;;17.68;100.00;100042.91;5179888;27;20050;-66
2023/09/16 06:00:54;;;;;;;7.30;2.22;;;;;;;18.63;100.00;100074.00;5179513;27;20056;-64
2023/09/16 06:03:20;;;;;;;3.28;2.97;;;;;;;19.65;100.00;100078.97;5179946;27;20050;-64
2023/09/16 06:05:45;;;;;;;4.65;2.75;;;;;;;20.42;100.00;100090.03;5179457;27;20104;-65
2023/09/16 06:08:12;;;;;;;3.45;2.67;;;;;;;20.27;100.00;100097.72;5179805;27;20144;-66
2023/09/16 06:10:38;;;;;;;4.80;2.35;;;;;;;19.26;100.00;100077.13;5179298;27;20421;-64
2023/09/16 06:13:04;;;;;;;2.75;2.47;;;;;;;20.64;100.00;100105.41;5179555;27;20136;-63
2023/09/16 06:15:30;;;;;;;2.70;2.50;;;;;;;20.11;100.00;100101.00;5179231;27;20061;-65
2023/09/16 06:17:56;;;;;;;4.43;2.45;;;;;;;20.42;100.00;100126.25;5179384;27;20068;-67
2023/09/16 06:20:22;;;;;;;3.17;2.20;;;;;;;21.17;100.00;100116.50;5178761;27;20141;-66
2023/09/16 06:22:48;;;;;;;3.83;1.92;;;;;;;21.66;100.00;100131.13;5179079;27;20077;-66
2023/09/16 06:25:14;;;;;;;3.70;2.50;;;;;;;21.69;100.00;100135.88;5179420;27;20046;-65
2023/09/16 06:27:40;;;;;;;4.15;1.90;;;;;;;21.36;97.51;100139.03;5179362;27;20136;-64
2023/09/16 06:30:08;;;;;;;2.58;2.13;;;;;;;21.38;100.00;100141.41;5179497;27;20078;-63
2023/09/16 06:32:33;;;;;;;3.08;1.67;;;;;;;21.82;96.43;100139.69;5179120;27;20046;-61
2023/09/16 06:35:00;;;;;;;9.07;2.40;;;;;;;21.35;100.00;100134.66;5179513;27;20050;-64
2023/09/16 06:37:26;;;;;;;2.20;1.85;;;;;;;22.18;90.27;100147.63;5178928;27;20133;-64
2023/09/16 06:39:52;;;;;;;2.15;1.95;;;;;;;22.60;86.00;100148.22;5178724;27;20191;-63
2023/09/16 06:42:18;;;;;;;2.92;1.77;;;;;;;21.50;91.29;100162.41;5179021;27;20050;-61
2023/09/16 06:44:49;;;;;;;3.05;2.75;;;;;;;23.21;82.81;100160.00;5178836;27;20324;-61
2023/09/16 06:47:15;;;;;;;2.83;2.20;;;;;;;22.51;80.32;100160.72;5179157;27;20042;-62
2023/09/16 06:49:42;;;;;;;2.85;2.60;;;;;;;22.71;82.17;100157.22;5178923;27;20061;-63
2023/09/16 06:52:09;;;;;;;3.58;2.70;;;;;;;22.36;82.48;100150.97;5178900;27;20046;-64
2023/09/16 06:54:35;;;;;;;7.00;3.00;;;;;;;22.61;83.38;100152.59;5178977;27;20046;-64
2023/09/16 06:57:02;;;;;;;4.15;2.25;;;;;;;22.31;81.50;100152.22;5179052;27;20084;-63
2023/09/16 06:59:30;;;;;;;2.72;1.83;;;;;;;22.96;81.79;100157.66;5178630;27;20084;-64
2023/09/16 07:01:57;;;;;;;3.10;2.80;;;;;;;21.30;95.16;100151.81;5179015;27;20069;-62
2023/09/16 07:04:25;;;;;;;3.85;2.80;;;;;;;22.24;89.71;100137.56;5178583;27;20046;-62
2023/09/16 07:06:51;;;;;;;2.72;2.53;;;;;;;22.56;86.85;100145.50;5179215;27;20137;-66
2023/09/16 07:09:17;;;;;;;6.35;2.50;;;;;;;22.25;84.03;100145.53;5178893;27;20145;-65
2023/09/16 07:11:44;;;;;;;2.60;2.40;;;;;;;22.44;87.21;100138.47;5178459;27;20070;-65
2023/09/16 07:14:10;;;;;;;2.83;1.90;;;;;;;22.11;83.50;100153.28;5178725;27;20070;-65
2023/09/16 07:16:38;;;;;;;4.93;2.05;;;;;;;23.06;83.74;100147.50;5178664;27;20393;-66
2023/09/16 07:19:04;;;;;;;2.00;1.80;;;;;;;22.08;76.63;100157.72;5178680;27;20070;-62
2023/09/16 07:21:31;;;;;;;3.15;2.35;;;;;;;22.85;79.75;100154.19;5178331;27;20054;-64
2023/09/16 07:24:00;;;;;;;3.25;2.00;;;;;;;22.84;84.01;100157.41;5178737;27;20381;-65
2023/09/16 07:26:27;;;;;;;4.15;2.10;;;;;;;22.94;81.18;100167.66;5178631;27;20326;-64
2023/09/16 07:28:53;;;;;;;2.90;2.70;;;;;;;22.15;78.66;100168.81;5178741;27;20061;-63
2023/09/16 07:31:19;;;;;;;2.72;2.20;;;;;;;22.54;81.89;100162.66;5180841;27;20050;-64
2023/09/16 07:33:46;;;;;;;6.75;1.75;;;;;;;22.54;82.00;100161.88;5182313;27;20471;-65
2023/09/16 07:36:11;;;;;;;2.83;2.22;;;;;;;23.15;75.55;100180.50;5182074;27;20133;-64
2023/09/16 07:38:37;;;;;;;3.03;2.40;;;;;;;22.57;73.06;100185.41;5181870;27;20046;-62
2023/09/16 07:41:03;;;;;;;3.42;2.10;;;;;;;20.96;91.02;100176.84;5181700;27;20431;-61
2023/09/16 07:43:30;;;;;;;1.90;1.70;;;;;;;22.37;80.58;100174.91;5182001;27;20133;-62
2023/09/16 07:45:58;;;;;;;2.40;2.20;;;;;;;21.65;74.58;100185.34;5182030;27;20057;-62
2023/09/16 07:48:24;;;;;;;2.30;2.10;;;;;;;21.86;78.45;100173.97;5181786;27;20057;-63
2023/09/16 07:50:50;;;;;;;2.83;1.73;;;;;;;21.90;78.39;100179.50;5181951;27;20102;-65
2023/09/16 07:53:15;;;;;;;2.22;1.50;;;;;;;21.24;82.78;100177.78;5181638;27;20334;-64
2023/09/16 07:55:42;;;;;;;2.58;1.63;;;;;;;20.55;85.54;100171.94;5181934;27;20046;-63
2023/09/16 07:58:08;;;;;;;1.90;1.45;;;;;;;21.44;82.82;100166.84;5181406;27;20141;-63
2023/09/16 08:00:34;;;;;;;2.95;1.70;;;;;;;20.65;80.69;100171.06;5181736;27;20057;-66
2023/09/16 08:03:01;;;;;;;3.75;2.33;;;;;;;20.40;85.40;100171.22;5181333;27;20050;-63
2023/09/16 08:05:27;;;;;;;2.20;2.00;;;;;;;21.38;79.57;100181.22;5181037;27;20077;-63
2023/09/16 08:07:53;;;;;;;2.30;2.10;;;;;;;22.95;71.31;100172.81;5181354;27;20054;-63
2023/09/16 08:10:19;;;;;;;2.78;2.10;;;;;;;22.37;73.46;100172.09;5181217;27;20433;-65
2023/09/16 08:12:45;;;;;;;2.13;1.92;;;;;;;22.47;68.80;100173.94;5181074;27;20065;-66
2023/09/16 08:15:11;;;;;;;2.85;2.03;;;;;;;22.14;74.27;100170.00;5181232;27;20046;-64
2023/09/16 08:17:38;;;;;;;1.90;1.80;;;;;;;22.05;75.82;100166.91;5181178;27;20061;-62
2023/09/16 08:20:05;;;;;;;3.33;1.85;;;;;;;22.30;78.16;100175.00;5180768;27;20086;-62
2023/09/16 08:22:31;;;;;;;2.25;2.05;;;;;;;22.54;74.78;100167.47;5181441;27;20050;-63
2023/09/16 08:24:56;;;;;;;2.85;2.15;;;;;;;22.04;74.67;100177.31;5180857;27;20427;-63
2023/09/16 08:27:22;;;;;;;2.25;2.10;;;;;;;22.59;70.85;100177.38;5181587;27;20078;-64
2023/09/16 08:29:49;;;;;;;4.13;1.63;;;;;;;22.27;70.71;100164.66;5181218;27;20378;-65
2023/09/16 08:32:15;;;;;;;2.33;1.83;;;;;;;23.57;67.09;100172.53;5181325;27;20050;-64
2023/09/16 08:34:42;;;;;;;4.35;2.30;;;;;;;23.89;69.60;100166.31;5180850;27;20106;-63
2023/09/16 08:37:07;;;;;;;3.33;1.92;;;;;;;22.36;66.34;100175.31;5180816;27;20133;-65
2023/09/16 08:39:33;;;;;;;1.98;1.88;;;;;;;22.15;70.25;100174.38;5180991;27;20137;-65
2023/09/16 08:42:05;;;;;;;1.50;1.40;;;;;;;20.82;81.13;100163.00;5180370;27;20050;-63
2023/09/16 08:44:36;;;;;;;1.80;1.45;;;;;;;21.17;81.80;100163.91;5181038;27;20190;-62
2023/09/16 08:47:09;;;;;;;1.60;1.50;;;;;;;21.61;77.61;100161.06;5180804;27;20050;-65
2023/09/16 08:49:40;;;;;;;1.60;1.50;;;;;;;22.69;69.91;100166.03;5181061;27;20050;-62
2023/09/16 08:52:09;;;;;;;3.00;2.25;;;;;;;22.48;72.06;100167.16;5180597;27;20335;-66
2023/09/16 08:54:37;;;;;;;3.95;2.10;;;;;;;23.07;71.17;100165.84;5181048;27;20358;-66
2023/09/16 08:57:04;;;;;;;2.70;2.50;;;;;;;21.64;69.13;100167.81;5180438;27;20137;-66
2023/09/16 08:59:31;;;;;;;2.55;2.20;;;;;;;22.53;72.52;100155.50;5180306;27;20400;-65
2023/09/16 09:01:57;;;;;;;2.38;1.52;;;;;;;22.90;69.57;100158.53;5180625;27;20062;-65
2023/09/16 09:04:23;;;;;;;2.92;1.65;;;;;;;22.59;68.67;100157.81;5180364;27;20518;-63
2023/09/16 09:06:50;;;;;;;2.05;1.90;;;;;;;23.02;66.96;100155.94;5180456;27;20086;-65
2023/09/16 09:09:16;;;;;;;1.42;1.33;;;;;;;21.49;72.57;100160.81;5180692;27;20064;-65
2023/09/16 09:11:43;;;;;;;2.22;2.03;;;;;;;22.36;69.18;100170.53;5180667;27;20376;-66
2023/09/16 09:14:10;;;;;;;2.33;2.20;;;;;;;22.20;69.08;100159.19;5180329;27;20096;-62
2023/09/16 09:16:39;;;;;;;3.55;2.22;;;;;;;20.90;71.45;100167.31;5180565;27;20052;-65
2023/09/16 09:19:05;;;;;;;1.70;1.60;;;;;;;21.63;76.96;100157.09;5180101;27;20118;-65
2023/09/16 09:21:32;;;;;;;2.30;2.08;;;;;;;21.77;72.55;100154.91;5180586;27;20056;-63
2023/09/16 09:23:58;;;;;;;2.50;1.88;;;;;;;21.73;72.24;100154.16;5179986;27;20050;-62
2023/09/16 09:26:25;;;;;;;2.80;2.50;;;;;;;21.01;74.31;100156.06;5179990;27;20145;-64
2023/09/16 09:28:51;;;;;;;3.70;1.80;;;;;;;20.40;77.74;100159.28;5180173;27;20368;-65
2023/09/16 09:31:17;;;;;;;2.45;2.25;;;;;;;20.62;79.34;100146.03;5180115;27;20126;-64
2023/09/16 09:33:44;;;;;;;2.47;1.65;;;;;;;20.55;78.30;100143.31;5180255;27;20046;-62
2023/09/16 09:36:12;;;;;;;2.08;1.67;;;;;;;20.68;77.19;100147.19;5180017;27;20141;-64
2023/09/16 09:38:40;;;;;;;1.75;1.65;;;;;;;20.02;75.79;100147.97;5180078;27;20046;-63
2023/09/16 09:41:05;;;;;;;1.70;1.60;;;;;;;20.29;74.33;100150.19;5179863;27;20060;-66
2023/09/16 09:43:34;;;;;;;2.45;1.60;;;;;;;20.61;76.94;100139.66;5180182;27;20125;-64
2023/09/16 09:46:03;;;;;;;2.97;1.85;;;;;;;20.74;81.61;100145.53;5179887;27;20046;-64
2023/09/16 09:48:30;;;;;;;1.75;1.63;;;;;;;21.68;78.74;100148.25;5180486;27;20130;-65
2023/09/16 09:50:56;;;;;;;3.50;2.30;;;;;;;21.25;75.96;100148.69;5179571;27;20114;-63
2023/09/16 09:53:22;;;;;;;3.08;1.98;;;;;;;21.51;70.87;100150.81;5178686;27;20436;-64
2023/09/16 09:55:48;;;;;;;1.75;1.65;;;;;;;21.43;72.47;100149.31;5179452;27;20128;-64
2023/09/16 09:58:14;;;;;;;2.55;1.65;;;;;;;21.89;73.12;100141.59;5179749;27;20319;-64
2023/09/16 10:00:47;;;;;;;3.25;2.10;;;;;;;20.93;77.75;100138.63;5179719;27;20050;-65
2023/09/16 10:03:13;;;;;;;2.80;1.80;;;;;;;20.44;76.50;100135.78;5179596;27;20046;-66
2023/09/16 10:05:39;;;;;;;1.90;1.70;;;;;;;20.27;76.86;100135.91;5179565;27;20046;-63
2023/09/16 10:08:05;;;;;;;2.10;1.90;;;;;;;21.19;75.78;100139.97;5179384;27;20339;-64
2023/09/16 10:10:31;;;;;;;2.47;1.70;;;;;;;22.21;73.31;100141.22;5179745;27;20050;-61
2023/09/16 10:12:58;;;;;;;1.90;1.80;;;;;;;21.61;68.01;100149.13;5179109;27;20106;-65
2023/09/16 10:15:25;;;;;;;2.80;1.75;;;;;;;21.77;69.94;100138.16;5179994;27;20137;-62
2023/09/16 10:17:52;;;;;;;2.53;2.30;;;;;;;21.20;75.41;100130.41;5179113;27;20050;-64
2023/09/16 10:20:18;;;;;;;2.67;1.60;;;;;;;21.91;73.12;100130.81;5179411;27;20436;-63
2023/09/16 10:22:45;;;;;;;1.65;1.55;;;;;;;20.75;79.75;100129.63;5179329;27;20137;-63
2023/09/16 10:25:12;;;;;;;1.85;1.75;;;;;;;20.68;75.87;100134.03;5179293;27;20459;-66
2023/09/16 10:27:44;;;;;;;2.78;2.15;;;;;;;20.63;77.17;100134.50;5179310;27;20137;-65
2023/09/16 10:30:14;;;;;;;1.75;1.65;;;;;;;20.81;76.88;100125.97;5179004;27;20419;-64
2023/09/16 10:32:40;;;;;;;5.20;1.85;;;;;;;20.77;73.80;100124.44;5179361;27;20060;-64
2023/09/16 10:35:08;;;;;;;1.80;1.70;;;;;;;20.98;75.68;100115.88;5179050;27;20046;-64
2023/09/16 10:37:36;;;;;;;2.35;2.17;;;;;;;21.05;79.14;100120.59;5179201;27;20133;-62
2023/09/16 10:40:04;;;;;;;2.60;2.08;;;;;;;20.41;81.99;100119.09;5178747;27;20471;-65
2023/09/16 10:42:33;;;;;;;1.77;1.67;;;;;;;20.67;77.44;100121.31;5179264;27;20117;-64
2023/09/16 10:45:02;;;;;;;1.77;1.67;;;;;;;20.86;76.05;100116.41;5178765;27;20050;-65
2023/09/16 10:47:28;;;;;;;2.85;1.83;;;;;;;20.32;75.43;100121.53;5179204;27;20113;-63
2023/09/16 10:49:54;;;;;;;2.80;1.80;;;;;;;20.88;77.81;100108.41;5178988;27;20054;-62
2023/09/16 10:52:32;;;;;;;1.67;1.58;;;;;;;20.40;81.32;100101.59;5178816;27;20145;-63
2023/09/16 10:55:03;;;;;;;2.10;1.90;;;;;;;21.40;78.03;100116.69;5179251;27;20069;-63
2023/09/16 10:57:36;;;;;;;3.20;1.70;;;;;;;20.90;81.22;100106.78;5178950;27;20046;-62
2023/09/16 11:00:03;;;;;;;2.97;2.00;;;;;;;20.29;81.33;100106.44;5178990;27;20054;-64
2023/09/16 11:02:35;;;;;;;1.80;1.70;;;;;;;19.45;90.00;100096.09;5178369;27;20495;-65
2023/09/16 11:05:01;;;;;;;2.85;2.05;;;;;;;20.19;86.14;100099.75;5179700;27;20050;-62
2023/09/16 11:07:28;;;;;;;2.42;1.88;;;;;;;20.34;86.58;100096.88;5182555;27;20056;-63
2023/09/16 11:09:56;;;;;;;2.90;2.03;;;;;;;19.75;86.16;100095.59;5182577;27;20136;-65
2023/09/16 11:12:22;;;;;;;1.65;1.55;;;;;;;18.56;100.00;100082.34;5182494;27;20323;-65
2023/09/16 11:14:49;;;;;;;2.10;1.63;;;;;;;19.08;98.43;100079.94;5182483;27;20150;-64
2023/09/16 11:17:15;;;;;;;2.40;1.90;;;;;;;18.61;100.00;100072.81;5182463;27;20392;-65
2023/09/16 11:19:42;;;;;;;1.98;1.77;;;;;;;18.60;100.00;100065.69;5181926;27;20082;-63
2023/09/16 11:22:08;;;;;;;2.10;1.90;;;;;;;18.58;100.00;100061.31;5182341;27;20458;-65